Time;durP1;ratioP1;P1;durP2;ratioP2;P2;SDS_P1;SDS_P2;PMS_P1;PMS_P2;Temp;Humidity;BMP_temperature;BMP_pressure;BME280_temperature;BME280_humidity;BME280_pressure;Samples;Min_cycle;Max_cycle;Signal;HPM_P1;HPM_P2
2021/10/27 00:00:07;;;;;;;4.57;3.20;;;;;;;21.79;32.50;100470.38;5110977;28;20063;-55
2021/10/27 00:02:42;;;;;;;5.25;3.40;;;;;;;21.79;32.56;100467.69;5103338;28;20047;-57
2021/10/27 00:05:13;;;;;;;4.55;3.13;;;;;;;21.79;32.49;100458.69;5111924;28;20059;-55
2021/10/27 00:07:41;;;;;;;3.78;2.90;;;;;;;21.79;32.44;100456.00;5111005;28;20174;-55
2021/10/27 00:10:09;;;;;;;4.30;3.00;;;;;;;21.79;32.51;100456.00;5110987;28;20487;-56
2021/10/27 00:12:37;;;;;;;3.70;3.15;;;;;;;21.78;32.43;100452.44;5109427;28;20686;-59
2021/10/27 00:15:05;;;;;;;3.35;2.80;;;;;;;21.77;32.61;100453.41;5110173;28;20055;-56
2021/10/27 00:17:33;;;;;;;4.10;3.13;;;;;;;21.79;32.46;100448.72;5114840;28;20075;-58
2021/10/27 00:20:01;;;;;;;4.07;3.53;;;;;;;21.78;32.54;100447.00;5110764;28;20431;-57
2021/10/27 00:22:30;;;;;;;3.97;3.08;;;;;;;21.79;32.48;100447.88;5109337;28;20527;-55
2021/10/27 00:24:58;;;;;;;5.95;3.63;;;;;;;21.79;32.56;100445.16;5109458;28;20059;-55
2021/10/27 00:27:26;;;;;;;4.30;2.90;;;;;;;21.74;32.44;100428.44;5110193;28;20051;-56
2021/10/27 00:29:53;;;;;;;4.75;2.97;;;;;;;21.77;32.54;100426.34;5110142;28;20717;-58
2021/10/27 00:32:21;;;;;;;4.63;3.08;;;;;;;21.78;32.47;100435.31;5109827;28;20419;-53
2021/10/27 00:34:49;;;;;;;5.05;3.70;;;;;;;21.78;32.53;100433.47;5091044;28;20051;-57
2021/10/27 00:37:17;;;;;;;5.32;3.28;;;;;;;21.78;32.43;100440.75;5109872;28;20051;-55
2021/10/27 00:39:46;;;;;;;4.63;3.28;;;;;;;21.78;32.60;100432.63;5110399;28;20047;-58
2021/10/27 00:42:14;;;;;;;4.00;2.92;;;;;;;21.77;32.65;100429.06;5109334;28;20134;-58
2021/10/27 00:44:43;;;;;;;3.75;3.10;;;;;;;21.75;32.53;100424.75;5110540;28;20051;-55
2021/10/27 00:47:11;;;;;;;4.55;2.70;;;;;;;21.78;32.27;100424.50;5109822;28;20066;-58
2021/10/27 00:49:40;;;;;;;4.00;2.90;;;;;;;21.66;32.56;100397.47;5108998;28;20047;-55
2021/10/27 00:52:11;;;;;;;3.90;2.70;;;;;;;21.77;32.51;100425.50;5110169;28;20059;-56
2021/10/27 00:54:43;;;;;;;3.63;2.78;;;;;;;21.76;32.45;100413.81;5109454;28;20500;-56
2021/10/27 00:57:12;;;;;;;3.78;3.10;;;;;;;21.78;32.56;100408.25;5109167;28;20059;-57
2021/10/27 00:59:40;;;;;;;5.03;3.40;;;;;;;21.77;32.52;100403.84;5109670;28;20149;-57
2021/10/27 01:02:08;;;;;;;4.18;3.13;;;;;;;21.78;32.63;100397.41;5108614;28;20062;-57
2021/10/27 01:04:36;;;;;;;4.28;2.80;;;;;;;21.74;32.55;100383.28;5108719;28;20044;-56
2021/10/27 01:07:04;;;;;;;4.55;3.17;;;;;;;21.76;32.50;100383.13;5109780;28;20060;-55
2021/10/27 01:09:33;;;;;;;3.90;2.85;;;;;;;21.67;32.68;100368.53;5109481;28;20059;-53
2021/10/27 01:12:03;;;;;;;3.83;2.90;;;;;;;21.77;32.53;100372.19;5109767;28;20059;-57
2021/10/27 01:14:37;;;;;;;5.07;3.35;;;;;;;21.75;32.62;100382.28;5098549;28;20055;-57
2021/10/27 01:17:05;;;;;;;3.85;2.80;;;;;;;21.73;32.63;100368.03;5109438;28;20058;-59
2021/10/27 01:19:43;;;;;;;3.55;2.75;;;;;;;21.75;32.66;100381.44;5108591;28;20102;-58
2021/10/27 01:22:12;;;;;;;4.25;3.70;;;;;;;21.47;32.58;100326.91;5108486;28;20052;-58
2021/10/27 01:24:40;;;;;;;4.30;3.17;;;;;;;21.76;32.66;100369.59;5096276;28;20101;-56
2021/10/27 01:27:08;;;;;;;4.25;3.03;;;;;;;21.76;32.64;100370.50;5107541;28;20062;-55
2021/10/27 01:29:36;;;;;;;5.03;3.20;;;;;;;21.77;32.71;100369.50;5110075;28;20052;-57
2021/10/27 01:32:05;;;;;;;4.57;3.15;;;;;;;21.72;32.61;100358.19;5107978;28;20606;-55
2021/10/27 01:34:33;;;;;;;4.55;3.25;;;;;;;21.77;32.61;100371.34;5111414;28;20056;-53
2021/10/27 01:37:02;;;;;;;3.78;2.83;;;;;;;21.73;32.60;100362.63;5113563;28;20051;-56
2021/10/27 01:39:30;;;;;;;4.28;3.15;;;;;;;21.76;32.58;100358.78;5113767;28;20503;-54
2021/10/27 01:41:58;;;;;;;3.72;2.88;;;;;;;21.77;32.60;100363.22;5113915;28;20500;-55
2021/10/27 01:44:26;;;;;;;4.55;3.38;;;;;;;21.76;32.67;100362.38;5112759;28;20043;-57
2021/10/27 01:46:54;;;;;;;3.50;2.85;;;;;;;21.74;32.60;100349.94;5113358;28;20427;-55
2021/10/27 01:49:21;;;;;;;4.13;3.17;;;;;;;21.77;32.65;100360.50;5113548;28;20058;-57
2021/10/27 01:51:50;;;;;;;3.67;2.80;;;;;;;21.77;32.57;100353.25;5112793;28;20048;-55
2021/10/27 01:54:19;;;;;;;3.00;2.45;;;;;;;21.75;32.70;100352.50;5109008;28;20052;-57
2021/10/27 01:56:47;;;;;;;4.38;3.40;;;;;;;21.76;32.74;100354.25;5112654;28;20081;-57
2021/10/27 01:59:15;;;;;;;3.92;2.85;;;;;;;21.76;32.60;100351.53;5113081;28;20064;-58
2021/10/27 02:01:42;;;;;;;4.03;3.10;;;;;;;21.75;32.66;100338.97;5110156;28;20482;-58
2021/10/27 02:04:10;;;;;;;4.70;3.17;;;;;;;21.75;32.66;100347.09;5113466;28;20054;-57
2021/10/27 02:06:38;;;;;;;3.13;2.58;;;;;;;21.77;32.70;100352.41;5112699;28;20056;-55
2021/10/27 02:09:07;;;;;;;3.38;3.08;;;;;;;21.75;32.62;100344.38;5113989;28;20047;-55
2021/10/27 02:11:37;;;;;;;4.38;3.13;;;;;;;21.77;32.59;100347.84;5112433;28;20054;-58
2021/10/27 02:14:06;;;;;;;4.43;3.08;;;;;;;21.77;32.61;100338.84;5112515;28;20056;-57
2021/10/27 02:16:35;;;;;;;3.92;3.05;;;;;;;21.75;32.65;100338.97;5112727;28;20062;-57
2021/10/27 02:19:03;;;;;;;4.57;3.17;;;;;;;21.73;32.72;100330.13;5113256;28;20047;-57
2021/10/27 02:21:30;;;;;;;3.58;2.88;;;;;;;21.76;32.86;100335.28;5115188;27;20071;-58
2021/10/27 02:23:58;;;;;;;3.47;2.88;;;;;;;21.75;32.60;100335.41;5110887;28;20056;-55
2021/10/27 02:26:26;;;;;;;4.00;2.92;;;;;;;21.74;32.72;100329.13;5112455;28;20062;-57
2021/10/27 02:28:55;;;;;;;3.35;2.65;;;;;;;21.77;32.75;100336.16;5122768;27;20058;-58
2021/10/27 02:31:23;;;;;;;3.45;2.67;;;;;;;21.76;32.88;100329.00;5110737;28;20055;-56
2021/10/27 02:33:52;;;;;;;3.05;2.63;;;;;;;21.74;32.67;100315.59;5112733;28;20480;-58
2021/10/27 02:36:19;;;;;;;4.53;3.67;;;;;;;21.75;32.83;100313.75;5112550;28;20056;-57
2021/10/27 02:38:47;;;;;;;4.50;3.05;;;;;;;21.75;32.69;100313.75;5112751;28;20055;-57
2021/10/27 02:41:15;;;;;;;4.10;2.92;;;;;;;21.76;32.78;100324.47;5111850;28;20063;-57
2021/10/27 02:43:43;;;;;;;3.28;2.60;;;;;;;21.74;32.88;100318.31;5110957;28;20475;-57
2021/10/27 02:46:13;;;;;;;3.80;2.90;;;;;;;21.72;32.47;100311.31;5110472;28;20051;-57
2021/10/27 02:48:40;;;;;;;4.97;2.90;;;;;;;21.74;32.79;100310.19;5094901;28;20056;-57
2021/10/27 02:51:08;;;;;;;4.07;2.67;;;;;;;21.72;32.86;100308.59;5112344;28;20086;-56
2021/10/27 02:53:36;;;;;;;3.85;2.60;;;;;;;21.75;32.91;100311.91;5111449;28;20056;-58
2021/10/27 02:56:04;;;;;;;4.25;3.13;;;;;;;21.75;32.86;100311.03;5111465;28;20066;-57
2021/10/27 02:58:32;;;;;;;4.75;2.95;;;;;;;21.75;32.75;100303.78;5111299;28;20052;-56
2021/10/27 03:01:01;;;;;;;4.75;3.08;;;;;;;21.75;32.68;100306.47;5111594;28;20052;-58
2021/10/27 03:03:30;;;;;;;3.72;3.03;;;;;;;21.74;32.83;100296.66;5111759;28;20051;-57
2021/10/27 03:05:58;;;;;;;3.92;3.08;;;;;;;21.76;32.86;100308.22;5112791;28;20070;-55
2021/10/27 03:08:26;;;;;;;4.35;2.65;;;;;;;21.73;32.85;100296.75;5111889;28;20149;-58
2021/10/27 03:10:54;;;;;;;3.58;2.70;;;;;;;21.75;32.86;100302.91;5111910;28;20058;-57
2021/10/27 03:13:22;;;;;;;3.60;3.20;;;;;;;21.73;32.81;100289.53;5110058;28;20043;-58
2021/10/27 03:15:50;;;;;;;3.95;2.75;;;;;;;21.75;32.87;100295.66;5111082;28;20059;-58
2021/10/27 03:18:19;;;;;;;3.97;2.70;;;;;;;21.73;32.94;100297.66;5109934;27;20051;-58
2021/10/27 03:20:48;;;;;;;4.15;3.05;;;;;;;21.70;32.86;100278.09;5110118;28;20055;-55
2021/10/27 03:23:16;;;;;;;4.00;2.60;;;;;;;21.75;32.74;100281.25;5097606;28;20047;-57
2021/10/27 03:25:44;;;;;;;2.83;2.42;;;;;;;21.72;32.99;100290.50;5110745;28;20055;-55
2021/10/27 03:28:12;;;;;;;3.28;2.42;;;;;;;21.74;32.86;100291.22;5110111;28;20056;-58
2021/10/27 03:30:39;;;;;;;3.17;2.08;;;;;;;21.75;32.85;100297.50;5110824;28;20070;-56
2021/10/27 03:33:08;;;;;;;3.22;2.30;;;;;;;21.75;32.82;100286.69;5110344;28;20066;-57
2021/10/27 03:35:36;;;;;;;2.75;2.15;;;;;;;21.74;32.91;100282.25;5110266;28;20047;-57
2021/10/27 03:38:05;;;;;;;3.50;2.30;;;;;;;21.69;32.81;100279.94;5109895;28;20546;-55
2021/10/27 03:40:33;;;;;;;3.40;2.50;;;;;;;21.74;32.95;100287.69;5109073;27;20055;-55
2021/10/27 03:43:01;;;;;;;3.28;2.58;;;;;;;21.75;32.64;100286.69;5102611;28;20054;-57
2021/10/27 03:45:28;;;;;;;2.58;2.17;;;;;;;21.74;33.02;100288.53;5106519;27;20056;-56
2021/10/27 03:47:56;;;;;;;3.78;2.28;;;;;;;21.74;32.92;100282.25;5107277;28;20511;-57
2021/10/27 03:50:25;;;;;;;3.40;2.10;;;;;;;21.74;32.98;100287.69;5107649;28;20519;-56
2021/10/27 03:52:54;;;;;;;2.63;2.00;;;;;;;21.73;32.92;100289.53;5108384;27;20052;-55
2021/10/27 03:55:23;;;;;;;3.53;2.20;;;;;;;21.74;32.98;100290.38;5109608;28;20051;-56
2021/10/27 03:57:51;;;;;;;3.35;2.35;;;;;;;21.73;32.92;100288.63;5108487;28;20056;-54
2021/10/27 04:00:19;;;;;;;3.45;2.35;;;;;;;21.73;33.03;100289.53;5110171;28;20055;-56
2021/10/27 04:02:47;;;;;;;3.35;2.40;;;;;;;21.73;32.89;100288.63;5102938;28;20182;-57
2021/10/27 04:05:15;;;;;;;3.28;2.53;;;;;;;21.73;32.95;100286.81;5109797;28;20064;-55
2021/10/27 04:07:44;;;;;;;2.97;2.00;;;;;;;21.74;33.09;100287.69;5118063;28;20055;-58
2021/10/27 04:10:12;;;;;;;4.13;2.20;;;;;;;21.73;33.12;100284.13;5109833;28;20078;-57
2021/10/27 04:12:42;;;;;;;2.58;1.65;;;;;;;21.73;33.02;100280.53;5105617;28;20624;-54
2021/10/27 04:15:10;;;;;;;2.33;1.70;;;;;;;21.74;32.93;100280.41;5110101;28;20054;-53
2021/10/27 04:17:38;;;;;;;3.85;2.47;;;;;;;21.74;33.15;100279.56;5110829;28;20055;-57
2021/10/27 04:20:08;;;;;;;2.42;1.80;;;;;;;21.71;33.13;100279.81;5117457;28;20059;-57
2021/10/27 04:22:37;;;;;;;1.67;1.38;;;;;;;21.69;33.07;100277.22;5102215;28;20491;-54
2021/10/27 04:25:05;;;;;;;2.83;1.85;;;;;;;21.74;33.03;100283.13;5106536;28;20050;-58
2021/10/27 04:27:34;;;;;;;2.28;2.00;;;;;;;21.72;33.10;100282.38;5103653;27;20059;-56
2021/10/27 04:30:04;;;;;;;2.95;2.05;;;;;;;21.73;33.02;100278.69;5093360;27;20138;-58
2021/10/27 04:32:32;;;;;;;3.28;1.98;;;;;;;21.74;33.09;100275.00;5103814;27;20496;-55
2021/10/27 04:35:01;;;;;;;2.65;2.15;;;;;;;21.72;33.07;100281.53;5099541;28;20043;-56
2021/10/27 04:37:33;;;;;;;2.58;1.70;;;;;;;21.73;33.04;100284.13;5097637;27;20065;-60
2021/10/27 04:40:01;;;;;;;2.17;1.60;;;;;;;21.74;33.15;100277.69;5098030;27;20892;-57
2021/10/27 04:42:29;;;;;;;2.10;1.50;;;;;;;21.71;33.01;100269.84;5098072;27;20484;-57
2021/10/27 04:44:57;;;;;;;1.70;1.42;;;;;;;21.73;33.12;100272.41;5101920;28;20499;-57
2021/10/27 04:47:26;;;;;;;2.55;1.92;;;;;;;21.73;33.03;100278.69;5102702;27;20474;-55
2021/10/27 04:49:54;;;;;;;2.75;1.73;;;;;;;21.73;32.99;100269.69;5078258;28;20067;-56
2021/10/27 04:52:22;;;;;;;2.60;1.80;;;;;;;21.65;33.23;100262.22;5092233;27;20058;-57
2021/10/27 04:54:49;;;;;;;2.85;1.75;;;;;;;21.73;33.25;100267.88;5099306;27;20051;-55
2021/10/27 04:57:17;;;;;;;2.53;1.75;;;;;;;21.73;33.17;100278.69;5100479;28;20043;-56
2021/10/27 04:59:46;;;;;;;2.53;1.50;;;;;;;21.74;33.40;100279.56;5105834;28;20059;-57
2021/10/27 05:02:14;;;;;;;2.92;1.65;;;;;;;21.74;33.25;100284.97;5100213;28;20063;-56
2021/10/27 05:04:44;;;;;;;2.70;1.90;;;;;;;21.74;33.20;100287.69;5100580;28;20051;-55
2021/10/27 05:07:15;;;;;;;2.22;1.63;;;;;;;21.72;33.28;100278.81;5104968;28;20051;-55
2021/10/27 05:09:43;;;;;;;2.47;1.73;;;;;;;21.73;33.30;100280.53;5103369;28;20427;-55
2021/10/27 05:12:13;;;;;;;2.80;1.90;;;;;;;21.73;33.37;100280.53;5106262;28;20056;-56
2021/10/27 05:14:42;;;;;;;2.25;1.52;;;;;;;21.73;33.28;100284.13;5103094;28;20051;-53
2021/10/27 05:17:12;;;;;;;2.50;1.50;;;;;;;21.74;33.29;100284.97;5086514;28;20046;-57
2021/10/27 05:19:40;;;;;;;2.15;1.70;;;;;;;21.73;33.36;100283.22;5098123;28;20798;-57
2021/10/27 05:22:11;;;;;;;2.22;1.50;;;;;;;21.73;33.30;100286.81;5082712;28;20592;-55
2021/10/27 05:24:40;;;;;;;2.63;1.70;;;;;;;21.72;33.22;100285.09;5103219;28;20055;-55
2021/10/27 05:27:08;;;;;;;2.70;1.50;;;;;;;21.73;33.46;100292.22;5095596;28;20047;-55
2021/10/27 05:29:37;;;;;;;2.30;1.70;;;;;;;21.72;33.31;100287.78;5103801;28;20063;-57
2021/10/27 05:32:08;;;;;;;2.03;1.45;;;;;;;21.73;33.36;100292.22;5104891;28;20059;-55
2021/10/27 05:34:37;;;;;;;2.35;1.20;;;;;;;21.69;33.50;100290.75;5087729;28;20055;-58
2021/10/27 05:37:06;;;;;;;2.90;1.55;;;;;;;21.73;33.44;100303.06;5107340;28;20052;-55
2021/10/27 05:39:35;;;;;;;1.67;1.35;;;;;;;21.73;33.46;100299.47;5108065;28;21620;-56
2021/10/27 05:42:04;;;;;;;2.60;1.52;;;;;;;21.73;33.54;100302.19;5106589;28;20142;-55
2021/10/27 05:44:32;;;;;;;2.22;1.50;;;;;;;21.69;33.33;100301.59;5103843;28;20055;-55
2021/10/27 05:47:00;;;;;;;1.75;1.33;;;;;;;21.73;33.42;100302.19;5106338;28;20407;-58
2021/10/27 05:49:34;;;;;;;2.65;1.40;;;;;;;21.74;33.41;100312.03;5103033;28;20055;-57
2021/10/27 05:52:06;;;;;;;1.95;1.55;;;;;;;21.73;33.40;100319.31;5077126;28;20043;-55
2021/10/27 05:57:21;;;;;;;2.83;1.60;;;;;;;21.73;33.48;100323.84;5099280;28;20063;-59
2021/10/27 05:59:51;;;;;;;2.65;1.40;;;;;;;21.72;33.47;100320.28;5104896;28;20051;-58
2021/10/27 06:02:19;;;;;;;2.03;1.20;;;;;;;21.72;33.50;100328.41;5087601;28;20052;-56
2021/10/27 06:04:47;;;;;;;1.60;1.20;;;;;;;21.72;33.64;100325.69;5093748;28;20476;-57
2021/10/27 06:07:14;;;;;;;1.77;1.33;;;;;;;21.72;33.49;100331.09;5103992;28;20067;-54
2021/10/27 06:09:45;;;;;;;1.58;1.48;;;;;;;21.72;33.51;100325.69;5103087;28;20043;-57
2021/10/27 06:12:14;;;;;;;2.17;1.20;;;;;;;21.71;33.37;100328.53;5086525;28;20590;-56
2021/10/27 06:14:42;;;;;;;1.88;1.15;;;;;;;21.41;33.62;100287.72;5096636;28;20055;-54
2021/10/27 06:17:10;;;;;;;1.30;0.98;;;;;;;21.73;33.53;100337.38;5071510;28;20506;-54
2021/10/27 06:19:39;;;;;;;1.88;1.20;;;;;;;21.72;33.64;100331.09;5093186;28;20054;-55
2021/10/27 06:22:07;;;;;;;2.35;1.35;;;;;;;21.72;33.60;100333.81;5100588;27;20055;-58
2021/10/27 06:24:36;;;;;;;1.95;1.25;;;;;;;21.70;33.65;100322.28;5098876;27;20066;-58
2021/10/27 06:27:07;;;;;;;1.55;1.02;;;;;;;21.73;33.63;100337.38;5103860;27;20055;-56
2021/10/27 06:29:40;;;;;;;2.13;1.40;;;;;;;21.73;33.28;100331.97;5097532;27;20063;-57
2021/10/27 06:32:18;;;;;;;2.15;1.20;;;;;;;21.73;33.63;100334.66;5101704;27;20065;-54
2021/10/27 06:34:50;;;;;;;2.08;1.10;;;;;;;21.73;33.46;100335.56;5102126;27;20056;-59
2021/10/27 06:37:35;;;;;;;1.83;1.20;;;;;;;21.73;33.61;100342.78;5093889;27;20058;-54
2021/10/27 06:48:28;;;;;;;2.38;1.10;;;;;;;21.71;33.58;100340.22;5097323;27;20074;-58
2021/10/27 06:50:57;;;;;;;1.92;1.58;;;;;;;21.72;33.71;100346.50;5083074;28;20047;-56
2021/10/27 06:53:25;;;;;;;2.03;1.20;;;;;;;21.72;33.62;100347.34;5078269;28;20059;-57
2021/10/27 06:55:52;;;;;;;1.63;1.15;;;;;;;21.73;33.61;100350.91;5076821;28;20058;-58
2021/10/27 06:58:23;;;;;;;1.90;1.30;;;;;;;21.71;33.74;100352.91;5095073;27;20549;-57
2021/10/27 07:00:53;;;;;;;1.80;1.20;;;;;;;21.72;33.65;100355.47;5092614;27;20724;-55
2021/10/27 07:03:43;;;;;;;2.00;1.15;;;;;;;21.72;33.67;100360.88;5088269;27;20054;-57
2021/10/27 07:17:15;;;;;;;1.33;0.90;;;;;;;21.73;33.69;100354.50;5092259;27;20055;-56
2021/10/27 07:19:42;;;;;;;1.73;1.00;;;;;;;21.72;33.71;100344.63;5088794;27;20066;-55
2021/10/27 07:22:13;;;;;;;1.50;1.10;;;;;;;21.72;33.68;100344.63;5085125;27;20048;-57
2021/10/27 07:24:41;;;;;;;2.45;1.33;;;;;;;21.72;33.58;100355.47;5089795;28;20070;-56
2021/10/27 07:27:13;;;;;;;3.03;1.13;;;;;;;21.71;33.85;100353.75;5087343;27;20058;-55
2021/10/27 07:29:44;;;;;;;1.75;1.00;;;;;;;21.72;33.84;100369.00;5089669;27;20066;-55
2021/10/27 07:32:15;;;;;;;1.65;1.05;;;;;;;21.70;33.72;100364.72;5093202;27;20995;-56
2021/10/27 07:34:47;;;;;;;1.73;1.20;;;;;;;21.74;33.98;100371.59;5076846;28;20078;-58
2021/10/27 07:42:52;;;;;;;3.05;1.17;;;;;;;21.75;34.43;100387.69;5088740;27;20055;-53
2021/10/27 07:45:23;;;;;;;2.10;1.10;;;;;;;21.74;34.63;100388.69;5083108;27;20086;-54
2021/10/27 07:47:51;;;;;;;2.20;1.15;;;;;;;21.72;36.15;100390.66;5068078;28;20052;-55
2021/10/27 07:50:19;;;;;;;3.40;1.42;;;;;;;21.75;35.02;100393.13;5084932;27;20511;-55
2021/10/27 07:52:47;;;;;;;2.40;1.38;;;;;;;21.76;35.51;100396.69;5093739;27;20052;-56
2021/10/27 07:55:15;;;;;;;1.88;0.82;;;;;;;21.81;35.51;100395.31;5088278;27;20044;-54
2021/10/27 07:57:43;;;;;;;1.50;0.93;;;;;;;21.85;35.60;100395.91;5083188;27;20711;-56
2021/10/27 08:00:12;;;;;;;1.77;0.90;;;;;;;21.88;35.74;100396.50;5088172;27;20142;-54
2021/10/27 08:02:42;;;;;;;2.13;1.23;;;;;;;21.91;35.74;100384.56;5061415;28;20055;-59
2021/10/27 08:05:10;;;;;;;1.92;1.00;;;;;;;21.93;35.57;100380.72;5051943;28;20067;-53
2021/10/27 08:07:45;;;;;;;2.13;1.25;;;;;;;22.03;36.25;100388.06;5081635;27;20059;-54
2021/10/27 08:10:14;;;;;;;1.60;0.90;;;;;;;21.93;36.03;100375.31;5090092;27;20056;-55
2021/10/27 08:12:42;;;;;;;5.88;1.55;;;;;;;22.05;35.67;100386.09;5076708;27;20048;-57
2021/10/27 08:15:10;;;;;;;1.85;1.08;;;;;;;22.05;35.50;100396.94;5060606;28;20483;-53
2021/10/27 08:17:38;;;;;;;1.15;0.75;;;;;;;22.07;35.31;100386.81;5078875;27;20673;-58
2021/10/27 08:20:09;;;;;;;2.28;0.80;;;;;;;22.10;35.92;100395.53;5090521;27;20063;-54
2021/10/27 08:22:38;;;;;;;2.20;1.25;;;;;;;22.20;36.00;100392.94;5082429;27;20695;-53
2021/10/27 08:25:15;;;;;;;2.50;1.40;;;;;;;22.26;35.96;100394.28;5081135;27;20051;-58
2021/10/27 08:27:44;;;;;;;2.15;1.15;;;;;;;22.28;36.15;100401.25;5061564;28;21832;-55
2021/10/27 08:30:17;;;;;;;2.40;1.08;;;;;;;22.32;36.21;100397.31;5055073;28;20079;-59
2021/10/27 08:32:53;;;;;;;2.10;1.10;;;;;;;22.30;35.94;100404.69;5065967;27;20067;-58
2021/10/27 08:35:29;;;;;;;2.13;1.40;;;;;;;22.26;35.88;100388.84;5082285;27;20043;-59
2021/10/27 08:37:57;;;;;;;1.60;1.00;;;;;;;22.28;35.74;100394.97;5052173;28;20055;-58
2021/10/27 08:40:26;;;;;;;3.50;1.17;;;;;;;22.31;36.01;100394.72;5043522;28;20055;-52
2021/10/27 08:42:53;;;;;;;2.90;1.17;;;;;;;22.30;35.97;100404.69;5072448;27;20051;-55
2021/10/27 08:45:22;;;;;;;2.05;1.00;;;;;;;22.21;36.08;100391.94;5078070;27;20043;-58
2021/10/27 08:47:51;;;;;;;2.58;1.20;;;;;;;22.29;36.29;100400.28;5079690;28;21002;-60
2021/10/27 08:50:21;;;;;;;2.67;1.17;;;;;;;22.36;36.28;100415.03;5086915;27;20059;-58
2021/10/27 08:52:50;;;;;;;2.42;1.00;;;;;;;22.37;36.18;100422.16;5083383;27;20351;-58
2021/10/27 08:55:19;;;;;;;2.30;0.82;;;;;;;22.30;36.06;100418.25;5083914;28;20056;-58
2021/10/27 08:57:49;;;;;;;2.60;0.93;;;;;;;22.39;36.18;100435.56;5080482;28;20059;-58
2021/10/27 09:00:22;;;;;;;1.80;1.17;;;;;;;22.40;36.28;100442.72;5077318;28;20538;-56
2021/10/27 09:05:54;;;;;;;2.33;1.02;;;;;;;22.32;36.14;100431.66;5037451;28;20063;-59
2021/10/27 09:17:05;;;;;;;2.08;0.77;;;;;;;22.44;36.34;100451.44;5068174;28;20059;-56
2021/10/27 09:33:54;;;;;;;2.47;1.08;;;;;;;22.52;36.21;100465.19;5073000;28;20055;-55
2021/10/27 09:36:31;;;;;;;1.42;0.85;;;;;;;22.54;36.13;100472.19;5071958;28;20056;-57
2021/10/27 09:47:52;;;;;;;1.80;1.05;;;;;;;22.60;36.51;100468.06;5066550;28;20051;-49
2021/10/27 10:04:13;;;;;;;4.25;1.05;;;;;;;22.62;37.28;100479.66;5075229;27;20070;-54
2021/10/27 10:06:41;;;;;;;2.58;0.82;;;;;;;22.66;37.26;100485.69;5064933;27;20050;-47
2021/10/27 10:09:10;;;;;;;2.05;1.00;;;;;;;22.67;37.34;100485.53;5063799;27;20048;-47
